Aérodrome :
LOGIN :

S'inscrire | Disclaimer

   EN    FR    IT 

 










Légende :    VFR   VFR Marginal   IFR   IFR Intensif   IFR Très Intensif
Visi : 
Plafond : 
>= 8 km
>= 3000ft
5 à 8 km
1000 à 3000 ft
1500m à 5 km
500 à 1000 ft
800 à 1500m
200 à 500 ft
< 800m
< 200 ft
Symboles :   Orages  Brouillard  Fortes neiges  Fortes précipitations  Vent > 20 kt
SIGMETs :   Divers  Orages  Givrage  Turbulence  Onde Orograph.  Cendres Volcan.






- Altitude de l'aérodrome : 461 ft
- Code IATA : WIE


ETOU - Wiesbaden Army

DERNIER METAR :
  • 250506Z AUTO 24012KT 9999 OVC019 09/07 A2965 RMK AO2 SLP045 $

METARs EXPIRÉS :
  • 250456Z AUTO 24011KT 9999 OVC020 09/06 A2966 RMK AO2 RAB19E33 SLP048 P0000 T00860064 $
  • 250433Z AUTO 24013KT 9999 OVC020 09/07 A2966 RMK AO2 RAB19E33 SLP048 $
  • 250419Z AUTO 23009KT 9999 -RA OVC020 09/07 A2967 RMK AO2 RAB19 SLP051 $
  • 250356Z AUTO 23009KT 9999 OVC021 09/07 A2967 RMK AO2 RAE38 SLP052 P0000 T00880068 $
  • 250338Z AUTO 23009KT 9999 OVC022 09/07 A2967 RMK AO2 RAE38 SLP052 $
  • 250256Z AUTO 23009KT 9999 -RA OVC021 09/07 A2968 RMK AO2 SLP056 P0001 60005 T00880074 57021 $

TAF TAF ETOU
Valide du 25 à 04h jusqu'au 26 à 10h UTC


250400Z 2504/2610 23010KT 9999 -RA OVC020 QNH2966INS
TEMPO 2511/2514 24010G18KT 9000 -DZ
BECMG 2515/2516 24015G20KT 9999 NSW SCT020 BKN025 QNH2951INS
BECMG 2602/2603 24015G25KT 6000 -RA BKN020 QNH2938INS TX09/2504Z TN03/2604Z



MET'MAP, la Météo Aéronautique d'un coup d'oeil ! - Copyright ORBIFLY Décembre 2007 - Disclaimer

ORBIFLY MET'MAP TEAM :

Programmation & Développement : Alexandra Zaïnal
Sur une idée originale de : Baudouin d'Aumeries
Assistance à la programmation : Marc-Olivier Méhu
Soutien technique & logistique : Manuel Goepfert

Contact : metmap@orbifly.com




SOURCES & CREDITS :

   NOAA